createdAt,value
2022-09-05T00:00:30.968Z,10.43
2022-09-05T00:03:34.316Z,5.35
2022-09-05T00:06:37.481Z,7.03
2022-09-05T00:09:40.519Z,6.20
2022-09-05T00:12:43.259Z,9.20
2022-09-05T00:15:46.008Z,7.03
2022-09-05T00:24:21.739Z,6.72
2022-09-05T00:24:32.146Z,5.20
2022-09-05T00:25:34.285Z,6.88
2022-09-05T00:28:36.739Z,5.63
2022-09-05T00:31:56.088Z,5.18
2022-09-05T00:34:59.779Z,7.35
2022-09-05T00:38:02.233Z,5.72
2022-09-05T00:41:05.168Z,6.78
2022-09-05T00:44:07.902Z,7.72
2022-09-05T00:47:10.111Z,7.13
2022-09-05T00:50:13.012Z,5.47
2022-09-05T00:53:16.248Z,5.85
2022-09-05T00:56:19.636Z,5.10
2022-09-05T00:59:23.397Z,6.38
2022-09-05T01:02:26.329Z,5.53
2022-09-05T01:05:28.989Z,6.78
2022-09-05T01:08:31.653Z,5.50
2022-09-05T01:11:34.207Z,6.03
2022-09-05T01:14:37.674Z,5.13
2022-09-05T01:17:40.601Z,6.53
2022-09-05T01:20:42.754Z,6.40
2022-09-05T01:23:45.089Z,5.72
2022-09-05T01:26:48.687Z,5.93
2022-09-05T01:29:51.347Z,6.10
2022-09-05T01:32:56.402Z,9.38
2022-09-05T01:36:08.668Z,7.30
2022-09-05T01:40:10.460Z,6.03
2022-09-05T01:42:33.903Z,5.47
2022-09-05T01:45:39.378Z,4.82
2022-09-05T01:48:42.474Z,4.30
2022-09-05T01:51:50.579Z,7.82
2022-09-05T01:54:53.010Z,6.05
2022-09-05T01:57:55.832Z,7.72
2022-09-05T02:00:57.987Z,8.52
2022-09-05T02:04:20.798Z,6.90
2022-09-05T02:07:30.789Z,4.13
2022-09-05T02:10:33.970Z,6.18
2022-09-05T02:13:36.938Z,5.75
2022-09-05T02:16:39.837Z,7.22
2022-09-05T02:19:42.591Z,4.97
2022-09-05T02:22:45.098Z,6.18
2022-09-05T02:26:02.400Z,5.57
2022-09-05T02:32:08.382Z,5.32
2022-09-05T02:35:13.777Z,5.32
2022-09-05T02:39:20.001Z,5.30
2022-09-05T02:45:07.953Z,6.22
2022-09-05T02:45:24.196Z,4.82
2022-09-05T02:48:23.928Z,4.72
2022-09-05T02:57:28.115Z,6.82
2022-09-05T02:57:37.050Z,5.90
2022-09-05T02:58:13.331Z,4.82
2022-09-05T03:01:16.541Z,5.45
2022-09-05T03:04:18.820Z,5.15
2022-09-05T03:07:21.307Z,6.30
2022-09-05T03:10:34.650Z,5.68
2022-09-05T03:13:48.801Z,6.70
2022-09-05T03:16:57.103Z,5.22
2022-09-05T03:20:00.756Z,4.72
2022-09-05T03:23:04.153Z,5.95
2022-09-05T03:26:08.977Z,6.13
2022-09-05T03:29:13.310Z,17.77
2022-09-05T03:32:16.923Z,7.43
2022-09-05T03:35:19.211Z,10.73
2022-09-05T03:38:21.513Z,9.43
2022-09-05T03:41:25.244Z,5.72
2022-09-05T03:44:40.366Z,8.70
2022-09-05T03:47:43.159Z,7.97
2022-09-05T03:57:08.214Z,7.97
2022-09-05T03:57:12.481Z,11.07
2022-09-05T03:57:41.497Z,16.83
2022-09-05T04:00:46.245Z,47.75
2022-09-05T04:08:09.003Z,43.80
2022-09-05T04:08:13.584Z,59.63
2022-09-05T04:10:38.323Z,60.63
2022-09-05T04:13:40.668Z,62.70
2022-09-05T04:16:43.258Z,51.75
2022-09-05T04:19:49.883Z,47.97
2022-09-05T04:22:52.467Z,46.42
2022-09-05T04:25:58.523Z,40.60
2022-09-05T04:29:14.556Z,45.20
2022-09-05T04:32:19.654Z,41.78
2022-09-05T04:35:22.432Z,42.80
2022-09-05T04:38:32.948Z,35.22
2022-09-05T04:41:39.178Z,54.67
2022-09-05T04:44:42.697Z,86.28
2022-09-05T04:47:46.521Z,65.38
2022-09-05T04:50:51.504Z,55.28
2022-09-05T04:53:54.180Z,56.17
2022-09-05T04:56:57.212Z,46.53
2022-09-05T05:03:05.606Z,51.00
2022-09-05T05:06:08.550Z,41.25
2022-09-05T05:06:46.959Z,43.63
2022-09-05T05:09:54.974Z,39.72
2022-09-05T05:17:57.935Z,38.40
2022-09-05T05:18:09.413Z,38.90
2022-09-05T05:20:02.118Z,34.70
2022-09-05T05:23:19.641Z,32.17
2022-09-05T05:26:22.530Z,37.65
2022-09-05T05:29:24.732Z,34.78
2022-09-05T05:32:43.558Z,34.55
2022-09-05T05:35:48.823Z,30.38
2022-09-05T05:38:51.826Z,33.15
2022-09-05T05:41:54.785Z,34.17
2022-09-05T05:44:57.349Z,29.52
2022-09-05T05:48:00.490Z,29.65
2022-09-05T05:51:03.674Z,25.00
2022-09-05T05:54:08.324Z,30.88
2022-09-05T05:57:14.865Z,26.42
2022-09-05T06:00:17.824Z,22.75
2022-09-05T06:03:31.418Z,26.38
2022-09-05T06:06:34.855Z,23.00
2022-09-05T06:14:40.382Z,21.50
2022-09-05T06:15:05.446Z,21.88
2022-09-05T06:16:22.210Z,22.30
2022-09-05T06:19:24.364Z,19.90
2022-09-05T06:22:31.593Z,22.17
2022-09-05T06:25:34.365Z,20.30
2022-09-05T06:28:37.406Z,20.95
2022-09-05T06:31:40.695Z,19.80
2022-09-05T06:34:43.930Z,19.48
2022-09-05T06:37:46.686Z,17.05
2022-09-05T06:40:49.554Z,17.67
2022-09-05T06:43:52.584Z,16.08
2022-09-05T06:47:22.699Z,15.93
2022-09-05T06:50:23.797Z,15.43
2022-09-05T06:53:27.128Z,15.95
2022-09-05T06:56:30.082Z,13.60
2022-09-05T06:59:33.001Z,15.95
2022-09-05T07:02:58.392Z,11.90
2022-09-05T07:05:57.899Z,14.27
2022-09-05T07:09:01.884Z,12.15
2022-09-05T07:12:05.159Z,12.32
2022-09-05T07:15:08.648Z,14.93
2022-09-05T07:18:12.220Z,11.63
2022-09-05T07:21:18.228Z,12.27
2022-09-05T07:24:53.641Z,14.90
2022-09-05T07:28:25.789Z,11.75
2022-09-05T07:31:27.683Z,13.50
2022-09-05T07:34:40.100Z,11.98
2022-09-05T07:37:43.510Z,12.40
2022-09-05T07:40:46.987Z,10.75
2022-09-05T07:43:49.572Z,9.85
2022-09-05T07:46:51.788Z,11.30
2022-09-05T07:51:00.701Z,12.48
2022-09-05T07:56:48.887Z,10.77
2022-09-05T07:57:03.850Z,10.57
2022-09-05T08:00:00.257Z,9.55
2022-09-05T08:03:03.469Z,9.65
2022-09-05T08:06:06.331Z,9.35
2022-09-05T08:10:06.925Z,10.45
2022-09-05T08:12:30.953Z,9.00
2022-09-05T08:16:10.369Z,10.32
2022-09-05T08:19:16.277Z,10.82
2022-09-05T08:22:18.533Z,11.05
2022-09-05T08:25:21.181Z,10.35
2022-09-05T08:28:26.086Z,9.52
2022-09-05T08:31:42.370Z,7.45
2022-09-05T08:34:45.890Z,9.82
2022-09-05T08:37:49.229Z,6.55
2022-09-05T08:40:51.685Z,8.30
2022-09-05T08:46:42.970Z,8.63
2022-09-05T08:47:16.987Z,7.80
2022-09-05T08:50:20.004Z,8.13
2022-09-05T08:53:45.528Z,7.63
2022-09-05T08:56:49.695Z,9.52
2022-09-05T09:00:19.602Z,7.55
2022-09-05T09:03:15.336Z,9.38
2022-09-05T09:06:18.392Z,8.35
2022-09-05T09:09:21.034Z,7.03
2022-09-05T09:12:23.660Z,6.75
2022-09-05T09:15:26.337Z,8.32
2022-09-05T09:18:31.861Z,7.20
2022-09-05T09:21:37.774Z,7.57
2022-09-05T09:24:40.429Z,6.03
2022-09-05T09:28:13.663Z,6.03
2022-09-05T09:31:07.820Z,5.45
2022-09-05T09:34:10.488Z,8.23
2022-09-05T09:37:12.986Z,5.68
2022-09-05T09:40:16.230Z,6.50
2022-09-05T09:43:19.619Z,5.50
2022-09-05T09:46:22.258Z,6.40
2022-09-05T09:49:25.819Z,6.07
2022-09-05T09:52:28.944Z,6.25
2022-09-05T09:55:31.467Z,5.60
2022-09-05T09:58:37.421Z,5.60
2022-09-05T10:01:40.449Z,5.30
2022-09-05T10:10:34.661Z,5.03
2022-09-05T10:10:44.492Z,7.75
2022-09-05T10:14:51.273Z,5.32
2022-09-05T10:17:54.372Z,4.03
2022-09-05T10:21:17.136Z,4.88
2022-09-05T10:24:20.837Z,4.18
2022-09-05T10:27:25.202Z,2.97
2022-09-05T10:30:28.053Z,2.38
2022-09-05T10:35:09.031Z,1.85
2022-09-05T10:37:12.835Z,3.50
2022-09-05T10:40:15.495Z,3.90
2022-09-05T10:43:18.147Z,2.75
2022-09-05T10:46:47.017Z,2.03
2022-09-05T10:49:44.028Z,3.05
2022-09-05T10:52:47.035Z,1.90
2022-09-05T10:55:52.245Z,3.78
2022-09-05T11:00:58.047Z,3.15
2022-09-05T11:02:25.981Z,1.73
2022-09-05T11:05:36.112Z,2.45
2022-09-05T11:08:39.012Z,2.83
2022-09-05T11:11:42.345Z,2.60
2022-09-05T11:14:45.299Z,3.00
2022-09-05T11:17:48.688Z,4.47
2022-09-05T11:20:51.658Z,3.90
2022-09-05T11:23:57.037Z,2.42
2022-09-05T11:27:24.425Z,2.65
2022-09-05T11:30:29.217Z,3.25
2022-09-05T11:39:51.441Z,2.97
2022-09-05T11:40:09.798Z,3.75
2022-09-05T11:40:30.229Z,3.58
2022-09-05T11:43:38.681Z,2.15
2022-09-05T11:46:40.905Z,3.38
2022-09-05T11:49:43.181Z,2.97
2022-09-05T11:52:45.820Z,2.80
2022-09-05T11:55:48.460Z,3.10
2022-09-05T11:58:50.857Z,4.38
2022-09-05T12:01:54.288Z,2.88
2022-09-05T12:05:49.849Z,2.88
2022-09-05T12:08:20.189Z,3.03
2022-09-05T12:11:23.616Z,2.45
2022-09-05T12:14:26.845Z,2.72
2022-09-05T12:17:35.385Z,1.92
2022-09-05T12:20:43.304Z,2.00
2022-09-05T12:27:41.627Z,4.07
2022-09-05T12:30:22.072Z,2.63
2022-09-05T12:40:38.519Z,12.65
2022-09-05T12:41:34.322Z,13.55
2022-09-05T12:44:29.862Z,30.83
2022-09-05T12:47:17.110Z,15.88
2022-09-05T12:50:24.128Z,24.80
2022-09-05T12:53:27.478Z,20.50
2022-09-05T13:00:03.961Z,12.13
2022-09-05T13:03:04.929Z,12.38
2022-09-05T13:03:28.153Z,11.82
2022-09-05T13:06:32.112Z,11.38
2022-09-05T13:10:34.051Z,10.63
2022-09-05T13:15:01.101Z,16.40
2022-09-05T13:16:23.316Z,4.25
2022-09-05T13:19:26.137Z,5.43
2022-09-05T13:22:28.375Z,3.10
2022-09-05T13:25:31.333Z,3.50
2022-09-05T13:28:34.823Z,4.10
2022-09-05T13:37:56.013Z,3.83
2022-09-05T13:37:59.533Z,5.30
2022-09-05T13:38:47.692Z,4.07
2022-09-05T13:41:44.943Z,3.67
2022-09-05T13:44:46.719Z,2.47
2022-09-05T13:47:49.892Z,3.30
2022-09-05T13:50:53.588Z,4.70
2022-09-05T13:53:56.398Z,2.95
2022-09-05T13:56:59.095Z,3.13
2022-09-05T14:00:01.818Z,3.67
2022-09-05T14:06:47.858Z,3.35
2022-09-05T14:09:50.762Z,4.32
2022-09-05T14:13:00.503Z,3.80
2022-09-05T14:16:03.640Z,3.55
2022-09-05T14:19:07.945Z,2.95
2022-09-05T14:22:10.827Z,4.03
2022-09-05T14:25:26.272Z,3.10
2022-09-05T14:28:29.593Z,3.97
2022-09-05T14:36:09.363Z,3.65
2022-09-05T14:37:53.847Z,1.55
2022-09-05T14:38:17.783Z,2.47
2022-09-05T14:41:21.960Z,3.83
2022-09-05T14:44:24.835Z,4.25
2022-09-05T14:47:35.644Z,3.15
2022-09-05T14:50:38.847Z,2.55
2022-09-05T15:02:38.437Z,2.17
2022-09-05T15:02:53.200Z,2.13
2022-09-05T15:07:11.899Z,5.32
2022-09-05T15:12:20.001Z,3.72
2022-09-05T15:13:37.599Z,2.65
2022-09-05T15:16:39.866Z,2.90
2022-09-05T15:19:42.107Z,2.30
2022-09-05T15:23:11.136Z,2.20
2022-09-05T15:26:25.873Z,2.38
2022-09-05T15:29:29.738Z,2.08
2022-09-05T15:32:32.739Z,2.65
2022-09-05T15:35:35.619Z,2.25
2022-09-05T15:38:54.822Z,2.83
2022-09-05T15:41:59.255Z,2.53
2022-09-05T15:45:16.770Z,3.20
2022-09-05T15:48:19.844Z,2.70
2022-09-05T15:51:22.367Z,2.30
2022-09-05T15:54:37.418Z,2.20
2022-09-05T15:57:41.992Z,2.97
2022-09-05T16:00:48.141Z,2.47
2022-09-05T16:05:57.417Z,1.80
2022-09-05T16:10:46.154Z,3.50
2022-09-05T16:11:16.442Z,2.03
2022-09-05T16:14:00.593Z,3.38
2022-09-05T16:23:16.741Z,4.10
2022-09-05T16:23:32.266Z,2.42
2022-09-05T16:23:48.241Z,4.65
2022-09-05T16:26:51.083Z,2.58
2022-09-05T16:29:54.077Z,4.38
2022-09-05T16:32:57.266Z,2.22
2022-09-05T16:36:00.324Z,4.15
2022-09-05T16:39:03.783Z,3.30
2022-09-05T16:42:07.105Z,2.30
2022-09-05T16:45:10.001Z,3.40
2022-09-05T16:48:12.224Z,2.97
2022-09-05T16:51:15.689Z,5.00
2022-09-05T16:54:18.750Z,7.03
2022-09-05T16:57:21.720Z,3.28
2022-09-05T17:00:24.830Z,2.97
2022-09-05T17:03:28.459Z,2.53
2022-09-05T17:06:31.987Z,7.13
2022-09-05T17:09:34.960Z,3.30
2022-09-05T17:12:38.022Z,3.28
2022-09-05T17:15:51.600Z,15.55
2022-09-05T17:18:54.755Z,10.15
2022-09-05T17:27:51.183Z,12.95
2022-09-05T17:29:33.612Z,9.68
2022-09-05T17:30:27.691Z,6.13
2022-09-05T17:32:05.212Z,5.13
2022-09-05T17:35:17.234Z,4.30
2022-09-05T17:38:20.281Z,3.42
2022-09-05T17:41:23.388Z,5.43
2022-09-05T17:44:26.635Z,4.93
2022-09-05T17:47:35.592Z,5.80
2022-09-05T17:50:40.171Z,3.03
2022-09-05T17:53:44.036Z,4.38
2022-09-05T17:56:46.655Z,5.30
2022-09-05T17:59:49.301Z,4.88
2022-09-05T18:02:51.406Z,5.68
2022-09-05T18:05:54.663Z,3.08
2022-09-05T18:08:58.247Z,3.47
2022-09-05T18:12:00.788Z,4.03
2022-09-05T18:15:05.155Z,4.20
2022-09-05T18:18:20.554Z,4.10
2022-09-05T18:21:32.543Z,2.25
2022-09-05T18:24:36.969Z,3.15
2022-09-05T18:28:04.581Z,8.55
2022-09-05T18:31:02.944Z,6.45
2022-09-05T18:34:12.612Z,5.22
2022-09-05T18:37:15.860Z,8.88
2022-09-05T18:40:36.804Z,3.90
2022-09-05T18:43:39.088Z,8.10
2022-09-05T18:46:41.460Z,4.20
2022-09-05T18:50:25.437Z,3.42
2022-09-05T18:53:10.040Z,3.17
2022-09-05T18:56:20.427Z,3.80
2022-09-05T18:59:24.364Z,3.28
2022-09-05T19:02:50.061Z,5.07
2022-09-05T19:05:51.209Z,2.33
2022-09-05T19:08:55.150Z,3.17
2022-09-05T19:12:01.604Z,2.03
2022-09-05T19:15:24.769Z,2.30
2022-09-05T19:18:28.784Z,3.08
2022-09-05T19:21:33.408Z,4.30
2022-09-05T19:24:45.695Z,5.88
2022-09-05T19:33:03.396Z,4.22
2022-09-05T19:36:48.899Z,5.70
2022-09-05T19:37:12.156Z,3.67
2022-09-05T19:37:56.441Z,4.05
2022-09-05T19:47:30.901Z,4.65
2022-09-05T19:47:47.595Z,3.17
2022-09-05T19:48:02.469Z,3.58
2022-09-05T19:51:16.171Z,4.90
2022-09-05T19:54:20.174Z,4.55
2022-09-05T19:57:22.862Z,5.00
2022-09-05T20:00:25.871Z,3.33
2022-09-05T20:03:28.799Z,3.20
2022-09-05T20:06:40.485Z,3.78
2022-09-05T20:09:43.816Z,2.72
2022-09-05T20:12:46.055Z,3.78
2022-09-05T20:15:48.719Z,2.58
2022-09-05T20:18:51.394Z,4.25
2022-09-05T20:21:56.875Z,4.10
2022-09-05T20:25:00.620Z,3.23
2022-09-05T20:28:09.557Z,2.20
2022-09-05T20:31:12.387Z,2.53
2022-09-05T20:34:40.745Z,2.70
2022-09-05T20:43:14.513Z,4.30
2022-09-05T20:43:20.300Z,2.90
2022-09-05T20:44:22.621Z,5.18
2022-09-05T20:50:41.338Z,4.65
2022-09-05T20:54:24.997Z,4.55
2022-09-05T20:54:32.098Z,5.88
2022-09-05T20:57:32.903Z,3.67
2022-09-05T21:00:35.563Z,2.55
2022-09-05T21:03:40.378Z,4.57
2022-09-05T21:06:44.899Z,2.40
2022-09-05T21:09:48.165Z,3.92
2022-09-05T21:12:50.834Z,2.65
2022-09-05T21:15:54.403Z,2.70
2022-09-05T21:18:57.015Z,3.72
2022-09-05T21:21:59.718Z,3.80
2022-09-05T21:25:02.334Z,1.98
2022-09-05T21:28:05.040Z,3.60
2022-09-05T21:31:15.737Z,2.53
2022-09-05T21:34:18.503Z,3.33
2022-09-05T21:37:21.436Z,2.80
2022-09-05T21:40:23.676Z,3.22
2022-09-05T21:47:40.211Z,2.83
2022-09-05T21:47:46.739Z,2.00
2022-09-05T21:50:14.053Z,2.60
2022-09-05T21:58:22.129Z,3.35
2022-09-05T21:59:20.587Z,2.58
2022-09-05T22:00:20.777Z,3.17
2022-09-05T22:03:23.479Z,2.20
2022-09-05T22:06:26.180Z,2.92
2022-09-05T22:09:28.838Z,3.30
2022-09-05T22:12:31.510Z,2.97
2022-09-05T22:15:34.242Z,4.15
2022-09-05T22:18:37.659Z,2.88
2022-09-05T22:21:40.617Z,1.85
2022-09-05T22:24:42.799Z,3.15
2022-09-05T22:27:45.300Z,3.55
2022-09-05T22:30:48.222Z,2.80
2022-09-05T22:33:51.242Z,2.45
2022-09-05T22:36:54.780Z,3.60
2022-09-05T22:39:57.295Z,2.97
2022-09-05T22:43:00.092Z,4.65
2022-09-05T22:46:03.386Z,2.90
2022-09-05T22:49:06.626Z,4.75
2022-09-05T22:52:09.868Z,3.20
2022-09-05T22:55:12.698Z,2.90
2022-09-05T22:58:15.527Z,3.53
2022-09-05T23:01:19.047Z,3.60
2022-09-05T23:04:22.043Z,2.00
2022-09-05T23:07:24.458Z,2.75
2022-09-05T23:10:27.172Z,3.25
2022-09-05T23:13:29.843Z,3.28
2022-09-05T23:16:32.349Z,2.90
2022-09-05T23:19:36.155Z,3.20
2022-09-05T23:22:38.616Z,2.33
2022-09-05T23:25:41.151Z,1.90
2022-09-05T23:28:44.009Z,2.97
2022-09-05T23:31:47.058Z,4.50
2022-09-05T23:34:50.685Z,3.80
2022-09-05T23:37:54.016Z,2.95
2022-09-05T23:40:57.457Z,2.75
2022-09-05T23:43:59.758Z,2.10
2022-09-05T23:47:02.753Z,2.88
2022-09-05T23:50:05.503Z,2.00
2022-09-05T23:53:08.665Z,2.33
2022-09-05T23:56:11.527Z,2.88
2022-09-05T23:59:14.125Z,2.85
